createdAt,value
2022-09-06T00:00:58.774Z,101104.59
2022-09-06T00:03:28.072Z,101109.25
2022-09-06T00:05:55.107Z,101114.50
2022-09-06T00:08:21.781Z,101125.66
2022-09-06T00:10:48.384Z,101158.69
2022-09-06T00:13:14.953Z,101174.03
2022-09-06T00:15:41.635Z,101182.69
2022-09-06T00:18:08.630Z,101179.94
2022-09-06T00:20:41.274Z,101182.06
2022-09-06T00:23:08.473Z,101171.06
2022-09-06T00:25:35.438Z,101179.75
2022-09-06T00:28:06.325Z,101204.63
2022-09-06T00:30:33.820Z,101223.00
2022-09-06T00:33:00.367Z,101223.19
2022-09-06T00:35:27.947Z,101226.59
2022-09-06T00:37:59.380Z,101209.41
2022-09-06T00:40:27.522Z,101215.16
2022-09-06T00:42:54.040Z,101218.09
2022-09-06T00:45:21.174Z,101227.41
2022-09-06T00:47:48.668Z,101234.94
2022-09-06T00:50:18.970Z,101233.59
2022-09-06T00:52:48.952Z,101250.66
2022-09-06T00:55:16.249Z,101252.31
2022-09-06T00:57:43.839Z,101259.97
2022-09-06T01:00:10.658Z,101259.53
2022-09-06T01:02:37.435Z,101259.44
2022-09-06T01:05:05.571Z,101258.94
2022-09-06T01:07:35.051Z,101255.44
2022-09-06T01:10:25.659Z,101257.19
2022-09-06T01:13:05.610Z,101249.66
2022-09-06T01:15:52.359Z,101242.09
2022-09-06T01:18:31.337Z,101225.50
2022-09-06T01:21:25.837Z,101235.25
2022-09-06T01:23:55.480Z,101223.94
2022-09-06T01:26:28.007Z,101214.88
2022-09-06T01:28:55.029Z,101212.09
2022-09-06T01:31:42.134Z,101217.19
2022-09-06T01:34:08.625Z,101209.38
2022-09-06T01:37:06.597Z,101201.72
2022-09-06T01:39:36.585Z,101201.50
2022-09-06T01:42:17.737Z,101195.88
2022-09-06T01:44:53.673Z,101181.16
2022-09-06T01:47:28.583Z,101178.50
2022-09-06T01:50:33.617Z,101183.06
2022-09-06T01:53:09.579Z,101200.16
2022-09-06T01:56:18.947Z,101218.34
2022-09-06T01:59:30.138Z,101225.28
2022-09-06T02:02:12.935Z,101221.31
2022-09-06T02:04:47.509Z,101210.75
2022-09-06T02:07:26.360Z,101206.91
2022-09-06T02:09:59.052Z,101213.03
2022-09-06T02:12:29.697Z,101205.41
2022-09-06T02:15:00.817Z,101219.47
2022-09-06T02:17:32.305Z,101218.22
2022-09-06T02:20:04.883Z,101204.09
2022-09-06T02:22:36.196Z,101202.41
2022-09-06T02:25:07.287Z,101198.84
2022-09-06T02:27:34.415Z,101192.44
2022-09-06T02:30:03.049Z,101180.00
2022-09-06T02:32:32.268Z,101176.94
2022-09-06T02:34:59.008Z,101168.81
2022-09-06T02:37:28.564Z,101174.81
2022-09-06T02:39:55.968Z,101167.06
2022-09-06T02:42:24.173Z,101171.44
2022-09-06T02:44:50.706Z,101169.16
2022-09-06T02:47:17.480Z,101170.69
2022-09-06T02:49:44.100Z,101170.50
2022-09-06T02:52:10.680Z,101166.19
2022-09-06T02:54:37.212Z,101162.50
2022-09-06T02:57:03.899Z,101156.00
2022-09-06T02:59:30.465Z,101142.31
2022-09-06T03:01:57.127Z,101134.94
2022-09-06T03:04:23.715Z,101134.63
2022-09-06T03:06:50.360Z,101130.94
2022-09-06T03:09:16.913Z,101131.28
2022-09-06T03:11:43.522Z,101122.41
2022-09-06T03:14:10.128Z,101115.91
2022-09-06T03:16:38.467Z,101116.91
2022-09-06T03:19:05.115Z,101115.56
2022-09-06T03:21:32.060Z,101118.13
2022-09-06T03:23:59.301Z,101116.63
2022-09-06T03:26:26.383Z,101135.13
2022-09-06T03:28:52.929Z,101134.09
2022-09-06T03:31:19.579Z,101131.19
2022-09-06T03:33:46.248Z,101132.13
2022-09-06T03:36:13.761Z,101126.78
2022-09-06T03:38:40.290Z,101139.00
2022-09-06T03:41:06.852Z,101131.84
2022-09-06T03:43:33.917Z,101143.97
2022-09-06T03:46:00.597Z,101140.00
2022-09-06T03:48:29.526Z,101143.25
2022-09-06T03:50:58.055Z,101148.47
2022-09-06T03:53:26.166Z,101145.22
2022-09-06T03:55:54.572Z,101148.00
2022-09-06T03:58:23.626Z,101139.38
2022-09-06T04:01:00.335Z,101139.59
2022-09-06T04:03:26.987Z,101137.56
2022-09-06T04:05:53.536Z,101132.63
2022-09-06T04:08:20.099Z,101134.72
2022-09-06T04:10:50.251Z,101134.91
2022-09-06T04:13:17.105Z,101131.41
2022-09-06T04:15:47.661Z,101129.44
2022-09-06T04:18:14.721Z,101134.84
2022-09-06T04:20:41.562Z,101133.97
2022-09-06T04:23:08.611Z,101136.19
2022-09-06T04:25:35.374Z,101131.72
2022-09-06T04:28:02.322Z,101142.91
2022-09-06T04:30:29.047Z,101139.25
2022-09-06T04:32:55.636Z,101132.03
2022-09-06T04:35:22.517Z,101131.25
2022-09-06T04:37:49.100Z,101138.41
2022-09-06T04:40:15.819Z,101136.69
2022-09-06T04:42:42.365Z,101133.50
2022-09-06T04:45:09.591Z,101134.91
2022-09-06T04:47:36.207Z,101138.59
2022-09-06T04:50:02.876Z,101135.56
2022-09-06T04:52:30.382Z,101134.84
2022-09-06T04:54:57.144Z,101137.88
2022-09-06T04:57:23.699Z,101140.63
2022-09-06T04:59:50.281Z,101139.44
2022-09-06T05:02:16.850Z,101145.38
2022-09-06T05:04:43.525Z,101146.78
2022-09-06T05:07:10.157Z,101149.34
2022-09-06T05:09:36.853Z,101149.25
2022-09-06T05:12:03.862Z,101154.91
2022-09-06T05:14:30.934Z,101155.63
2022-09-06T05:16:57.633Z,101159.25
2022-09-06T05:19:24.281Z,101159.25
2022-09-06T05:21:51.675Z,101167.06
2022-09-06T05:24:18.489Z,101153.91
2022-09-06T05:26:45.103Z,101158.59
2022-09-06T05:29:11.764Z,101162.94
2022-09-06T05:31:38.551Z,101171.50
2022-09-06T05:34:05.620Z,101172.53
2022-09-06T05:36:32.317Z,101172.84
2022-09-06T05:38:59.297Z,101170.69
2022-09-06T05:41:26.701Z,101170.00
2022-09-06T05:43:53.301Z,101164.28
2022-09-06T05:46:19.942Z,101170.22
2022-09-06T05:49:00.983Z,101162.53
2022-09-06T05:51:27.543Z,101164.50
2022-09-06T05:53:54.126Z,101169.84
2022-09-06T05:56:22.246Z,101162.41
2022-09-06T05:58:48.836Z,101162.81
2022-09-06T06:01:19.889Z,101164.94
2022-09-06T06:04:04.031Z,101168.56
2022-09-06T06:06:34.570Z,101164.38
2022-09-06T06:09:01.203Z,101169.91
2022-09-06T06:11:28.455Z,101172.94
2022-09-06T06:13:55.314Z,101165.50
2022-09-06T06:16:23.084Z,101165.50
2022-09-06T06:18:52.174Z,101162.97
2022-09-06T06:21:23.997Z,101165.03
2022-09-06T06:23:53.416Z,101161.94
2022-09-06T06:26:20.386Z,101159.84
2022-09-06T06:28:47.326Z,101157.75
2022-09-06T06:31:14.585Z,101156.75
2022-09-06T06:33:41.642Z,101148.16
2022-09-06T06:36:21.725Z,101153.94
2022-09-06T06:38:49.922Z,101145.75
2022-09-06T06:41:19.273Z,101146.06
2022-09-06T06:43:45.850Z,101139.88
2022-09-06T06:46:18.012Z,101135.25
2022-09-06T06:48:45.955Z,101127.78
2022-09-06T06:51:16.675Z,101135.44
2022-09-06T06:53:47.708Z,101136.38
2022-09-06T06:56:15.665Z,101139.19
2022-09-06T06:58:42.678Z,101136.84
2022-09-06T07:01:10.194Z,101139.38
2022-09-06T07:03:36.908Z,101141.59
2022-09-06T07:06:12.302Z,101138.69
2022-09-06T07:08:39.814Z,101144.72
2022-09-06T07:11:09.890Z,101140.78
2022-09-06T07:13:37.053Z,101142.63
2022-09-06T07:16:07.905Z,101145.28
2022-09-06T07:18:35.068Z,101132.97
2022-09-06T07:26:36.638Z,101141.09
2022-09-06T07:29:05.283Z,101132.47
2022-09-06T07:34:19.240Z,101142.00
2022-09-06T07:36:45.907Z,101143.25
2022-09-06T07:39:12.516Z,101139.03
2022-09-06T07:41:39.133Z,101135.84
2022-09-06T07:44:05.660Z,101136.13
2022-09-06T07:46:32.278Z,101131.09
2022-09-06T07:48:59.011Z,101130.41
2022-09-06T07:51:25.607Z,101137.97
2022-09-06T07:54:12.885Z,101145.56
2022-09-06T07:56:41.996Z,101139.41
2022-09-06T07:59:09.260Z,101148.41
2022-09-06T08:01:40.377Z,101148.63
2022-09-06T08:04:08.577Z,101156.19
2022-09-06T08:09:25.076Z,101147.00
2022-09-06T08:11:52.658Z,101145.34
2022-09-06T08:14:19.919Z,101145.59
2022-09-06T08:16:46.540Z,101139.31
2022-09-06T08:19:13.421Z,101150.09
2022-09-06T08:21:40.087Z,101142.81
2022-09-06T08:24:09.621Z,101147.94
2022-09-06T08:26:40.371Z,101140.94
2022-09-06T08:29:08.769Z,101142.78
2022-09-06T08:31:41.464Z,101134.09
2022-09-06T08:34:08.655Z,101144.03
2022-09-06T08:36:35.295Z,101135.81
2022-09-06T08:39:05.603Z,101130.69
2022-09-06T08:41:54.199Z,101129.34
2022-09-06T08:47:19.454Z,101127.16
2022-09-06T08:49:48.573Z,101131.03
2022-09-06T08:52:34.644Z,101134.53
2022-09-06T08:55:12.383Z,101136.56
2022-09-06T08:57:53.844Z,101126.31
2022-09-06T09:00:20.688Z,101130.69
2022-09-06T09:02:52.785Z,101125.00
2022-09-06T09:05:34.384Z,101129.81
2022-09-06T09:08:12.915Z,101127.28
2022-09-06T09:10:47.435Z,101120.19
2022-09-06T09:13:32.908Z,101115.16
2022-09-06T09:15:59.720Z,101111.91
2022-09-06T09:18:33.461Z,101106.31
2022-09-06T09:21:00.344Z,101107.75
2022-09-06T09:23:29.107Z,101118.28
2022-09-06T09:26:00.081Z,101112.72
2022-09-06T09:28:26.669Z,101114.53
2022-09-06T09:30:55.756Z,101098.72
2022-09-06T09:33:28.109Z,101101.75
2022-09-06T09:35:58.175Z,101092.19
2022-09-06T09:38:28.478Z,101089.38
2022-09-06T09:40:56.431Z,101090.94
2022-09-06T09:43:25.670Z,101087.84
2022-09-06T09:46:18.216Z,101080.66
2022-09-06T09:49:28.685Z,101072.28
2022-09-06T09:52:06.071Z,101075.28
2022-09-06T09:54:37.291Z,101078.38
2022-09-06T09:57:17.217Z,101069.00
2022-09-06T10:00:02.049Z,101073.97
2022-09-06T10:02:41.381Z,101072.22
2022-09-06T10:05:13.719Z,101066.78
2022-09-06T10:07:49.148Z,101062.75
2022-09-06T10:10:26.024Z,101053.41
2022-09-06T10:13:14.544Z,101056.81
2022-09-06T10:15:41.574Z,101051.94
2022-09-06T10:18:17.952Z,101060.69
2022-09-06T10:20:51.699Z,101062.47
2022-09-06T10:26:30.985Z,101085.81
2022-09-06T10:29:05.875Z,101093.72
2022-09-06T10:31:36.605Z,101077.91
2022-09-06T10:34:33.173Z,101059.94
2022-09-06T10:37:11.734Z,101065.47
2022-09-06T10:40:03.014Z,101058.88
2022-09-06T10:42:38.779Z,101066.75
2022-09-06T10:45:29.087Z,101056.41
2022-09-06T10:47:58.739Z,101062.81
2022-09-06T10:50:43.709Z,101070.81
2022-09-06T10:53:40.826Z,101061.72
2022-09-06T10:56:13.371Z,101065.47
2022-09-06T11:02:07.883Z,101065.22
2022-09-06T11:07:36.779Z,101055.53
2022-09-06T11:10:15.604Z,101060.75
2022-09-06T11:13:02.794Z,101044.72
2022-09-06T11:15:37.061Z,101043.53
2022-09-06T11:18:15.572Z,101046.34
2022-09-06T11:20:57.831Z,101047.81
2022-09-06T11:23:48.233Z,101049.72
2022-09-06T11:26:29.358Z,101047.25
2022-09-06T11:29:01.581Z,101057.47
2022-09-06T11:34:28.651Z,101053.13
2022-09-06T11:36:58.799Z,101060.19
2022-09-06T11:42:45.325Z,101054.88
2022-09-06T11:45:11.785Z,101052.56
2022-09-06T11:47:42.781Z,101052.31
2022-09-06T11:50:21.534Z,101053.84
2022-09-06T11:53:06.461Z,101055.66
2022-09-06T11:55:39.162Z,101046.06
2022-09-06T11:58:20.814Z,101047.16
2022-09-06T12:01:13.347Z,101041.91
2022-09-06T12:04:05.899Z,101037.56
2022-09-06T12:07:03.488Z,101037.81
2022-09-06T12:09:34.182Z,101029.50
2022-09-06T12:12:01.299Z,101027.03
2022-09-06T12:14:40.355Z,101028.69
2022-09-06T12:17:09.783Z,101027.09
2022-09-06T12:19:43.911Z,101031.66
2022-09-06T12:22:41.302Z,101026.44
2022-09-06T12:25:18.440Z,101024.56
2022-09-06T12:27:56.838Z,101028.78
2022-09-06T12:30:42.023Z,101019.59
2022-09-06T12:33:17.295Z,101026.03
2022-09-06T12:36:00.515Z,101016.56
2022-09-06T12:38:28.921Z,101013.31
2022-09-06T12:40:59.008Z,101007.50
2022-09-06T12:43:26.244Z,101014.84
2022-09-06T12:45:53.194Z,101012.91
2022-09-06T12:48:31.606Z,101013.09
2022-09-06T12:51:16.306Z,101006.81
2022-09-06T12:53:54.963Z,101001.72
2022-09-06T12:56:23.141Z,100995.28
2022-09-06T12:58:49.756Z,101002.59
2022-09-06T13:01:30.360Z,101006.84
2022-09-06T13:04:22.999Z,100993.06
2022-09-06T13:06:49.888Z,100993.38
2022-09-06T13:09:20.292Z,100992.63
2022-09-06T13:11:51.450Z,100991.91
2022-09-06T13:14:25.738Z,100993.56
2022-09-06T13:16:57.016Z,100987.16
2022-09-06T13:19:38.478Z,100986.50
2022-09-06T13:22:07.938Z,100985.75
2022-09-06T13:24:34.449Z,100989.34
2022-09-06T13:27:01.440Z,100978.53
2022-09-06T13:29:32.138Z,100985.22
2022-09-06T13:32:01.823Z,100978.19
2022-09-06T13:34:33.285Z,100976.97
2022-09-06T13:37:09.156Z,100964.88
2022-09-06T13:39:40.101Z,100966.59
2022-09-06T13:42:10.757Z,100963.03
2022-09-06T13:44:40.570Z,100961.47
2022-09-06T13:47:07.236Z,100964.38
2022-09-06T13:49:33.970Z,100957.97
2022-09-06T13:52:02.883Z,100959.06
2022-09-06T13:54:33.262Z,100958.00
2022-09-06T13:57:01.724Z,100950.75
2022-09-06T13:59:28.936Z,100945.69
2022-09-06T14:02:05.341Z,100951.50
2022-09-06T14:04:32.470Z,100951.09
2022-09-06T14:06:59.037Z,100956.72
2022-09-06T14:09:25.560Z,100944.66
2022-09-06T14:11:52.466Z,100944.25
2022-09-06T14:14:19.435Z,100947.16
2022-09-06T14:16:47.558Z,100943.09
2022-09-06T14:19:14.764Z,100939.69
2022-09-06T14:21:41.501Z,100946.72
2022-09-06T14:24:08.117Z,100946.53
2022-09-06T14:26:35.898Z,100947.00
2022-09-06T14:29:03.935Z,100939.84
2022-09-06T14:31:32.480Z,100931.34
2022-09-06T14:33:59.594Z,100931.34
2022-09-06T14:36:29.306Z,100931.66
2022-09-06T14:38:58.452Z,100941.56
2022-09-06T14:41:25.726Z,100937.78
2022-09-06T14:43:55.164Z,100938.66
2022-09-06T14:46:23.633Z,100930.94
2022-09-06T14:48:59.310Z,100930.28
2022-09-06T14:51:26.645Z,100919.25
2022-09-06T14:53:56.640Z,100920.72
2022-09-06T14:56:24.419Z,100921.97
2022-09-06T14:58:51.013Z,100914.69
2022-09-06T15:01:22.616Z,100920.31
2022-09-06T15:03:55.873Z,100919.47
2022-09-06T15:06:23.611Z,100919.28
2022-09-06T15:08:50.544Z,100921.97
2022-09-06T15:11:39.331Z,100907.00
2022-09-06T15:14:08.990Z,100906.38
2022-09-06T15:16:36.115Z,100903.22
2022-09-06T15:19:03.454Z,100895.94
2022-09-06T15:21:31.014Z,100896.75
2022-09-06T15:23:57.977Z,100889.91
2022-09-06T15:26:25.159Z,100888.06
2022-09-06T15:28:52.257Z,100876.19
2022-09-06T15:31:19.513Z,100875.53
2022-09-06T15:33:48.868Z,100871.97
2022-09-06T15:36:16.236Z,100870.78
2022-09-06T15:38:46.981Z,100866.56
2022-09-06T15:41:15.225Z,100861.16
2022-09-06T15:43:47.072Z,100858.88
2022-09-06T15:46:15.614Z,100864.47
2022-09-06T15:48:50.167Z,100869.50
2022-09-06T15:51:20.145Z,100870.13
2022-09-06T15:53:47.324Z,100859.91
2022-09-06T15:56:15.927Z,100859.94
2022-09-06T15:58:43.344Z,100861.41
2022-09-06T16:01:18.586Z,100858.75
2022-09-06T16:03:46.368Z,100860.72
2022-09-06T16:06:26.738Z,100859.88
2022-09-06T16:08:59.983Z,100855.81
2022-09-06T16:11:28.461Z,100857.06
2022-09-06T16:13:55.694Z,100847.34
2022-09-06T16:16:22.782Z,100846.44
2022-09-06T16:18:49.742Z,100847.50
2022-09-06T16:21:21.484Z,100846.44
2022-09-06T16:23:57.228Z,100850.84
2022-09-06T16:26:26.598Z,100852.72
2022-09-06T16:28:53.598Z,100857.34
2022-09-06T16:31:21.597Z,100850.00
2022-09-06T16:33:49.199Z,100849.56
2022-09-06T16:36:16.680Z,100843.13
2022-09-06T16:38:43.602Z,100844.56
2022-09-06T16:41:22.473Z,100838.13
2022-09-06T16:43:49.462Z,100834.78
2022-09-06T16:46:16.426Z,100841.66
2022-09-06T16:48:43.613Z,100836.19
2022-09-06T16:51:17.929Z,100839.94
2022-09-06T16:53:46.575Z,100839.69
2022-09-06T16:56:16.113Z,100837.38
2022-09-06T16:58:44.389Z,100842.19
2022-09-06T17:01:11.039Z,100840.13
2022-09-06T17:03:38.909Z,100841.78
2022-09-06T17:06:06.808Z,100840.31
2022-09-06T17:08:35.248Z,100836.09
2022-09-06T17:11:08.585Z,100833.22
2022-09-06T17:13:36.067Z,100839.22
2022-09-06T17:16:22.508Z,100832.75
2022-09-06T17:18:49.931Z,100839.41
2022-09-06T17:21:16.535Z,100841.31
2022-09-06T17:23:43.515Z,100836.53
2022-09-06T17:26:10.492Z,100840.88
2022-09-06T17:28:38.118Z,100836.53
2022-09-06T17:31:05.581Z,100826.53
2022-09-06T17:33:33.764Z,100837.78
2022-09-06T17:36:16.940Z,100826.72
2022-09-06T17:38:47.886Z,100824.00
2022-09-06T17:41:28.234Z,100813.59
2022-09-06T17:43:55.384Z,100816.09
2022-09-06T17:46:28.381Z,100814.44
2022-09-06T17:48:56.074Z,100813.34
2022-09-06T17:51:23.043Z,100813.28
2022-09-06T17:53:49.670Z,100817.03
2022-09-06T17:56:18.221Z,100815.13
2022-09-06T17:58:53.988Z,100810.09
2022-09-06T18:01:21.505Z,100826.53
2022-09-06T18:03:48.221Z,100824.59
2022-09-06T18:06:19.893Z,100823.16
2022-09-06T18:08:47.916Z,100826.44
2022-09-06T18:11:17.949Z,100817.06
2022-09-06T18:13:45.105Z,100821.66
2022-09-06T18:16:14.037Z,100819.13
2022-09-06T18:18:41.651Z,100814.53
2022-09-06T18:21:08.209Z,100813.03
2022-09-06T18:23:35.768Z,100818.22
2022-09-06T18:26:08.094Z,100816.28
2022-09-06T18:28:36.718Z,100819.16
2022-09-06T18:31:18.568Z,100823.47
2022-09-06T18:33:45.755Z,100825.72
2022-09-06T18:36:15.513Z,100818.59
2022-09-06T18:38:45.385Z,100824.56
2022-09-06T18:41:34.121Z,100818.09
2022-09-06T18:44:05.220Z,100814.50
2022-09-06T18:46:34.030Z,100814.84
2022-09-06T18:49:00.870Z,100814.69
2022-09-06T18:51:28.084Z,100821.78
2022-09-06T18:53:57.665Z,100813.63
2022-09-06T18:56:25.199Z,100804.63
2022-09-06T18:58:58.806Z,100810.41
2022-09-06T19:01:29.256Z,100803.50
2022-09-06T19:04:00.541Z,100810.13
2022-09-06T19:06:29.313Z,100804.28
2022-09-06T19:09:04.523Z,100807.16
2022-09-06T19:11:31.687Z,100798.88
2022-09-06T19:13:58.422Z,100799.28
2022-09-06T19:16:27.466Z,100792.59
2022-09-06T19:18:58.550Z,100789.44
2022-09-06T19:21:25.948Z,100782.09
2022-09-06T19:24:01.462Z,100789.44
2022-09-06T19:26:29.112Z,100782.00
2022-09-06T19:29:01.027Z,100784.78
2022-09-06T19:31:36.843Z,100780.31
2022-09-06T19:34:04.245Z,100787.31
2022-09-06T19:36:31.903Z,100784.16
2022-09-06T19:39:04.327Z,100787.69
2022-09-06T19:41:33.903Z,100781.47
2022-09-06T19:44:01.581Z,100771.88
2022-09-06T19:46:28.235Z,100773.09
2022-09-06T19:48:58.774Z,100774.31
2022-09-06T19:51:25.682Z,100767.34
2022-09-06T19:53:54.726Z,100770.59
2022-09-06T19:56:27.169Z,100770.22
2022-09-06T19:58:55.708Z,100777.38
2022-09-06T20:01:24.072Z,100772.75
2022-09-06T20:03:51.457Z,100773.09
2022-09-06T20:06:18.418Z,100771.44
2022-09-06T20:08:50.496Z,100769.94
2022-09-06T20:11:18.426Z,100770.31
2022-09-06T20:13:45.449Z,100776.72
2022-09-06T20:16:14.199Z,100775.75
2022-09-06T20:18:41.084Z,100772.28
2022-09-06T20:21:08.397Z,100769.13
2022-09-06T20:23:35.651Z,100781.59
2022-09-06T20:26:08.070Z,100774.41
2022-09-06T20:28:35.248Z,100782.00
2022-09-06T20:31:06.238Z,100784.53
2022-09-06T20:33:33.806Z,100778.00
2022-09-06T20:36:05.368Z,100777.19
2022-09-06T20:38:34.092Z,100781.09
2022-09-06T20:41:12.186Z,100778.25
2022-09-06T20:43:39.876Z,100797.00
2022-09-06T20:46:14.688Z,100790.66
2022-09-06T20:48:44.854Z,100781.94
2022-09-06T20:51:19.346Z,100790.00
2022-09-06T20:53:54.733Z,100787.38
2022-09-06T20:56:24.817Z,100789.75
2022-09-06T20:59:02.510Z,100793.63
2022-09-06T21:01:31.674Z,100798.69
2022-09-06T21:04:00.036Z,100806.16
2022-09-06T21:06:29.187Z,100799.16
2022-09-06T21:08:56.792Z,100798.19
2022-09-06T21:11:23.968Z,100795.47
2022-09-06T21:13:52.548Z,100802.31
2022-09-06T21:16:24.187Z,100803.53
2022-09-06T21:18:56.153Z,100801.88
2022-09-06T21:21:23.721Z,100804.03
2022-09-06T21:23:50.300Z,100799.69
2022-09-06T21:26:17.568Z,100801.53
2022-09-06T21:28:45.428Z,100797.31
2022-09-06T21:31:23.842Z,100798.66
2022-09-06T21:33:55.378Z,100788.09
2022-09-06T21:36:29.204Z,100790.13
2022-09-06T21:39:01.662Z,100785.94
2022-09-06T21:41:29.828Z,100772.91
2022-09-06T21:43:58.510Z,100779.84
2022-09-06T21:46:31.715Z,100773.97
2022-09-06T21:49:01.591Z,100778.50
2022-09-06T21:51:28.203Z,100755.00
2022-09-06T21:53:56.904Z,100759.56
2022-09-06T21:56:24.201Z,100754.31
2022-09-06T21:58:52.996Z,100764.53
2022-09-06T22:01:19.660Z,100755.44
2022-09-06T22:03:46.319Z,100753.63
2022-09-06T22:06:16.932Z,100752.31
2022-09-06T22:08:43.910Z,100743.06
2022-09-06T22:11:23.309Z,100738.19
2022-09-06T22:13:51.031Z,100730.78
2022-09-06T22:16:20.223Z,100726.13
2022-09-06T22:18:48.836Z,100706.28
2022-09-06T22:21:19.965Z,100707.97
2022-09-06T22:24:01.699Z,100720.06
2022-09-06T22:26:30.537Z,100706.00
2022-09-06T22:28:59.916Z,100706.84
2022-09-06T22:31:28.445Z,100695.91
2022-09-06T22:33:55.327Z,100681.81
2022-09-06T22:36:23.758Z,100691.19
2022-09-06T22:38:56.170Z,100679.47
2022-09-06T22:41:28.095Z,100677.44
2022-09-06T22:43:55.060Z,100680.66
2022-09-06T22:46:21.747Z,100671.78
2022-09-06T22:48:49.176Z,100664.59
2022-09-06T22:51:16.429Z,100653.56
2022-09-06T22:53:43.076Z,100658.50
2022-09-06T22:56:09.692Z,100661.38
2022-09-06T22:58:36.302Z,100671.88
2022-09-06T23:01:11.714Z,100667.03
2022-09-06T23:03:38.926Z,100671.47
2022-09-06T23:06:06.164Z,100683.28
2022-09-06T23:08:34.685Z,100709.50
2022-09-06T23:11:06.910Z,100760.72
2022-09-06T23:13:33.892Z,100920.19
2022-09-06T23:16:05.958Z,100909.84
2022-09-06T23:18:32.700Z,100888.75
2022-09-06T23:21:14.021Z,100867.50
2022-09-06T23:23:41.618Z,100873.19
2022-09-06T23:26:13.573Z,100891.78
2022-09-06T23:28:40.550Z,100902.44
2022-09-06T23:31:10.277Z,100913.16
2022-09-06T23:33:37.165Z,100916.22
2022-09-06T23:36:09.513Z,100917.44
2022-09-06T23:38:37.815Z,100918.00
2022-09-06T23:41:05.901Z,100921.25
2022-09-06T23:43:32.755Z,100924.03
2022-09-06T23:45:59.346Z,100914.03
2022-09-06T23:48:26.021Z,100927.53
2022-09-06T23:50:52.692Z,100941.66
2022-09-06T23:53:19.507Z,100942.50
2022-09-06T23:55:46.181Z,100967.47
2022-09-06T23:58:13.338Z,100967.59
